Weather observations for the past three days for
Hardin County Airport
Imperial (Metric)
Date Time (edt) Wind (mph) Vis. (mi.) Weather Sky Cond. Temperature (ºF) Relative Humidity Wind Chill (°F) Heat Index (°F) Pressure Precipitation (in)
Air Dwpt 6 hour altimeter (in) sea level (mb) 1 hr 3 hr 6 hr
Max. Min.
02 14:55 SW 12 10.00 Fair CLR 89.6 75.2 63% 100 30.02 0.0
02 14:35 SW 10 10.00 Fair CLR 89.6 77 67% 103 30.02 0.0
02 14:15 SW 12 10.00 Fair CLR 89.6 77 67% 103 30.03 0.0
02 13:55 W 10 10.00 Fair CLR 89.6 77 67% 103 30.03 0.0
02 13:35 W 10 10.00 Fair CLR 89.6 75.2 63% 100 30.04 0.0
02 13:15 W 12 9.00 Fair CLR 89.6 75.2 63% 100 30.05 0.0
02 12:55 SW 9 10.00 A Few Clouds FEW085 89.6 75.2 63% 100 30.05 0.0
02 12:35 SW 10 10.00 Partly Cloudy SCT085 87.8 75.2 66% 98 30.06 0.0
02 12:15 W 9 10.00 A Few Clouds FEW085 87.8 77 70% 100 30.06 0.0
02 11:55 SW 9 10.00 Fair CLR 86 75.2 70% 95 30.06 0.0
02 11:35 W 9 10.00 Fair CLR 86 75.2 70% 95 30.05 0.0
02 11:15 SW 9 10.00 Fair CLR 84.2 75.2 74% 92 30.05 0.0
02 10:55 W 10 10.00 Fair CLR 84.2 75.2 74% 92 30.05 0.0
02 10:35 SW 12 10.00 Fair CLR 82.4 75.2 79% 89 30.05 0.0
02 10:15 SW 10 10.00 Fair CLR 82.4 75.2 79% 89 30.05 0.0
02 09:55 SW 10 10.00 Fair CLR 82.4 75.2 79% 89 30.05 0.0
02 09:35 SW 9 10.00 Fair CLR 80.6 73.4 79% 85 30.05 0.0
02 09:15 SW 9 10.00 Fair CLR 78.8 73.4 84% 82 30.05 0.0
02 08:55 SW 8 10.00 Fair CLR 77 73.4 89% 78 30.05 0.0
02 08:35 SW 8 10.00 Fair CLR 77 73.4 89% 78 30.05 0.0
02 08:15 SW 8 10.00 Fair CLR 75.2 73.4 94% 74 30.05 0.0
02 07:55 SW 8 10.00 Fair CLR 75.2 71.6 89% 75 30.04 0.0
02 07:35 SW 9 10.00 Fair CLR 73.4 71.6 94% 30.04 0.0
02 07:15 SW 9 10.00 Fair CLR 73.4 71.6 94% 30.03 0.0
02 06:55 SW 7 10.00 Fair CLR 73.4 71.6 94% 30.03 0.0
02 06:35 SW 6 10.00 Fair CLR 73.4 71.6 94% 30.03 0.0
02 06:15 SW 7 10.00 Fair CLR 75.2 71.6 89% 75 30.02 0.0
02 05:55 SW 7 10.00 Fair CLR 75.2 71.6 89% 75 30.02 0.0
02 05:35 SW 6 10.00 Fair CLR 75.2 73.4 94% 74 30.02 0.0
02 05:15 SW 7 10.00 A Few Clouds FEW033 FEW044 75.2 73.4 94% 74 30.02 0.0
02 04:55 SW 9 10.00 Mostly Cloudy SCT034 BKN041 75.2 73.4 94% 74 30.02 0.0
02 04:35 SW 9 10.00 Partly Cloudy SCT037 SCT042 SCT050 77 73.4 89% 78 30.02 0.0
02 04:15 SW 9 10.00 Mostly Cloudy SCT040 BKN048 78.8 73.4 84% 82 30.01 0.0
02 03:55 W 8 10.00 Mostly Cloudy BKN039 BKN045 77 73.4 89% 78 30.01 0.0
02 03:35 SW 8 10.00 Mostly Cloudy BKN040 BKN048 75.2 73.4 94% 74 30.01 0.0
02 03:15 SW 9 10.00 Partly Cloudy SCT044 75.2 73.4 94% 74 30.01 0.0
02 02:55 SW 9 10.00 A Few Clouds FEW047 75.2 73.4 94% 74 30.01 0.0
02 02:35 SW 9 10.00 Fair CLR 77 73.4 89% 78 30.02 0.0
02 02:15 SW 8 10.00 Fair CLR 77 73.4 89% 78 30.02 0.0
02 01:55 SW 9 10.00 A Few Clouds FEW031 77 73.4 89% 78 30.02 0.0
02 01:35 SW 8 10.00 A Few Clouds FEW030 77 73.4 89% 78 30.02 0.0
02 01:15 SW 9 10.00 A Few Clouds FEW033 78.8 73.4 84% 82 30.01 0.0
02 00:55 SW 9 10.00 Fair CLR 77 73.4 89% 78 30.01 0.0
02 00:35 SW 9 10.00 Mostly Cloudy SCT029 BKN034 77 73.4 89% 78 30.01 0.0
02 00:15 SW 9 10.00 Mostly Cloudy SCT029 BKN034 77 73.4 89% 78 30 0.0
01 23:55 SW 9 10.00 A Few Clouds FEW036 77 75.2 94% 78 30 0.0
01 23:35 SW 8 10.00 A Few Clouds FEW039 78.8 75.2 89% 82 30.01 0.0
01 23:15 SW 9 10.00 A Few Clouds FEW041 78.8 75.2 89% 82 30.01 0.0
01 22:55 SW 9 10.00 Fair CLR 78.8 75.2 89% 82 30.01 0.0
01 22:35 SW 9 10.00 Fair CLR 78.8 75.2 89% 82 30.01 0.0
01 22:15 SW 9 10.00 Fair CLR 78.8 75.2 89% 82 30.01 0.0
01 21:55 SW 9 10.00 NULL NULL 78.8 75.2 89% 82 30.01 0.0
01 21:35 SW 8 10.00 Fair CLR 80.6 75.2 84% 86 30.01 0.0
01 21:15 SW 6 10.00 A Few Clouds FEW110 80.6 75.2 84% 86 30 0.0
01 20:55 Calm 10.00 A Few Clouds FEW100 80.6 77 89% 87 30 0.0
01 20:35 S 3 10.00 Fair CLR 80.6 78.8 94% 88 30 0.0
01 20:15 Calm 10.00 A Few Clouds FEW120 80.6 80.6 100% 89 30 0.0
01 19:55 Calm 10.00 Fair CLR 84.2 80.6 89% 98 30.01 0.0
01 19:35 Calm 10.00 Fair CLR 84.2 80.6 89% 98 30.01 0.0
01 19:15 Calm 10.00 Fair CLR 86 80.6 84% 102 30.02 0.0
01 18:55 Calm 10.00 A Few Clouds FEW110 87.8 80.6 79% 105 30.02 0.0
01 18:35 Calm 10.00 Fair CLR 87.8 78.8 75% 102 30.03 0.0
01 18:15 SW 3 10.00 Fair CLR 87.8 78.8 75% 102 30.02 0.0
01 17:55 Calm 10.00 Fair CLR 87.8 78.8 75% 102 30.02 0.0
01 17:35 Calm 10.00 Fair CLR 87.8 78.8 75% 102 30.02 0.0
01 17:15 Calm 10.00 Fair CLR 87.8 78.8 75% 102 30.02 0.0
01 16:55 Calm 10.00 Fair CLR 0 0 0% 0 0.0
01 16:35 Calm 10.00 Fair CLR 86 78.8 79% 99 30.03 0.0
01 16:15 W 6 G 13 10.00 Partly Cloudy FEW042 SCT110 86 77 75% 97 30.03 0.0
01 15:55 W 9 10.00 A Few Clouds FEW110 87.8 77 70% 100 30.03 0.0
01 15:35 SW 9 10.00 Fair CLR 87.8 77 70% 100 30.03 0.0
01 15:15 W 9 10.00 Fair CLR 89.6 78.8 71% 105 30.02 0.0
01 14:55 W 10 10.00 Fair CLR 87.8 77 70% 100 30.03 0.0
01 14:35 W 8 10.00 Fair CLR 86 77 75% 97 30.03 0.0
01 14:15 S 5 10.00 Fair CLR 84.2 78.8 84% 96 30.03 0.0
01 13:55 Vrbl 3 9.00 Fair CLR 80.6 78.8 94% 88 30.03 0.0 0.03
01 13:35 Calm 10.00 A Few Clouds FEW065 FEW110 82.4 77 84% 91 30.04 0.0
01 13:15 SE 5 9.00 Fair CLR 80.6 77 89% 87 30.03 0.0
01 12:55 S 5 10.00 A Few Clouds FEW100 80.6 77 89% 87 30.04 0.0
01 12:35 SW 6 10.00 A Few Clouds FEW100 80.6 77 89% 87 30.06 0.0
01 12:15 SW 3 10.00 A Few Clouds FEW070 FEW100 78.8 77 94% 83 30.05 0.0
01 11:55 W 7 10.00 A Few Clouds FEW110 78.8 77 94% 83 30.06 0.0
01 11:35 SW 8 10.00 Fair CLR 78.8 77 94% 83 30.05 0.0
01 11:15 S 3 10.00 Fair CLR 77 75.2 94% 78 30.06 0.0
01 10:55 S 5 10.00 Partly Cloudy FEW027 FEW032 SCT100 75.2 75.2 100% 73 30.06 0.0 0.3
01 10:35 S 5 1.00 Fog/Mist SCT003 BKN031 OVC075 73.4 73.4 100% 30.06 0.0
01 10:15 W 7 G 14 1.50 Fog/Mist SCT003 BKN032 OVC065 75.2 73.4 94% 74 30.08 0.0
01 09:55 W 6 10.00 Overcast BKN070 BKN080 OVC100 77 73.4 89% 78 30.07 0.0
01 09:35 W 10 10.00 Overcast BKN070 OVC100 77 73.4 89% 78 30.05 0.0
01 09:15 SW 10 10.00 Overcast SCT075 OVC100 77 73.4 89% 78 30.05 0.0
01 08:55 SW 12 10.00 Mostly Cloudy BKN100 BKN120 77 73.4 89% 78 30.04 0.0
01 08:35 SW 12 10.00 Mostly Cloudy BKN100 77 73.4 89% 78 30.04 0.0
01 08:15 SW 10 10.00 Partly Cloudy SCT100 75.2 73.4 94% 74 30.04 0.0
01 07:55 SW 9 10.00 Partly Cloudy SCT100 75.2 71.6 89% 75 30.04 0.0
01 07:35 SW 9 10.00 Mostly Cloudy BKN100 BKN120 75.2 71.6 89% 75 30.04 0.0
01 07:15 SW 9 10.00 Mostly Cloudy BKN100 75.2 71.6 89% 75 30.03 0.0
01 06:55 SW 10 10.00 Mostly Cloudy BKN100 75.2 71.6 89% 75 30.03 0.0
01 06:35 SW 9 10.00 Mostly Cloudy BKN100 75.2 71.6 89% 75 30.03 0.0
01 06:15 SW 10 10.00 Overcast OVC100 75.2 71.6 89% 75 30.02 0.0
01 05:55 SW 12 10.00 Overcast OVC100 75.2 71.6 89% 75 30.02 0.0
01 05:35 SW 12 10.00 Overcast OVC110 75.2 71.6 89% 75 30.02 0.0
01 05:15 SW 10 10.00 Mostly Cloudy BKN100 75.2 71.6 89% 75 30.02 0.0
01 04:55 SW 12 10.00 Mostly Cloudy BKN100 75.2 71.6 89% 75 30.02 0.0
01 04:35 SW 13 10.00 Partly Cloudy SCT100 75.2 71.6 89% 75 30.01 0.0
01 04:15 SW 10 10.00 A Few Clouds FEW110 75.2 71.6 89% 75 30.01 0.0
01 03:55 SW 12 10.00 Partly Cloudy SCT110 75.2 73.4 94% 74 30.01 0.0
01 03:15 SW 10 10.00 Fair CLR 75.2 73.4 94% 74 30.01 0.0
01 02:55 SW 12 10.00 Fair CLR 77 73.4 89% 78 30.01 0.0
01 02:35 SW 12 10.00 Partly Cloudy SCT100 77 71.6 83% 78 30.01 0.0
01 02:15 SW 9 10.00 Partly Cloudy SCT100 77 71.6 83% 78 30.02 0.0
01 01:55 SW 9 10.00 A Few Clouds FEW100 77 71.6 83% 78 30.02 0.0
01 01:35 SW 8 10.00 Fair CLR 77 71.6 83% 78 30.03 0.0
01 01:15 SW 6 G 12 10.00 Fair CLR 78.8 71.6 79% 82 30.02 0.0
01 00:55 SW 7 10.00 Fair CLR 77 71.6 83% 78 30.02 0.0
01 00:35 SW 7 10.00 Fair CLR 75.2 71.6 89% 75 30.03 0.0
31 23:55 S 6 10.00 Fair CLR 78.8 71.6 79% 82 30.02 0.0
31 23:35 SW 5 10.00 Fair CLR 77 71.6 83% 78 30.02 0.0
31 23:15 SW 7 10.00 Fair CLR 78.8 71.6 79% 82 30.02 0.0
31 22:55 Vrbl 6 G 17 10.00 Fair CLR 78.8 73.4 84% 82 30.02 0.0
31 22:35 S 10 10.00 Fair CLR 77 73.4 89% 78 30.01 0.0
31 22:15 S 9 10.00 Fair CLR 77 75.2 94% 78 30.02 0.0
31 21:55 S 10 10.00 Fair CLR 78.8 75.2 89% 82 30.02 0.0
31 21:35 S 7 10.00 A Few Clouds FEW075 FEW110 77 75.2 94% 78 30.03 0.0
31 21:15 SE 5 10.00 A Few Clouds FEW075 FEW110 77 75.2 94% 78 30.05 0.0
31 20:55 SE 5 10.00 Partly Cloudy SCT110 75.2 75.2 100% 73 30.05 0.0
31 20:35 Calm 10.00 Fair CLR 75.2 75.2 100% 73 30.05 0.0
31 20:15 Calm 10.00 Fair CLR 78.8 75.2 89% 82 30.05 0.0
31 19:35 Calm 10.00 A Few Clouds FEW120 80.6 77 89% 87 30.05 0.0
31 19:15 Calm 10.00 Fair CLR 80.6 75.2 84% 86 30.05 0.0
31 18:55 Calm 10.00 A Few Clouds FEW120 80.6 75.2 84% 86 30.05 0.0
31 18:35 Calm 10.00 Fair CLR 0 0 0% 0 0.0
31 18:15 SW 5 10.00 Fair CLR 82.4 75.2 79% 89 30.04 0.0
31 17:55 SW 7 10.00 Fair CLR 82.4 75.2 79% 89 30.04 0.0
31 17:35 SW 7 10.00 Fair CLR 82.4 75.2 79% 89 30.03 0.0
31 17:15 SW 7 10.00 Fair CLR 82.4 75.2 79% 89 30.03 0.0
31 16:55 SW 6 10.00 Fair CLR 82.4 73.4 74% 88 30.03 0.0
31 16:35 SW 6 10.00 Fair CLR 82.4 73.4 74% 88 30.04 0.0
31 16:15 SW 9 10.00 Fair CLR 82.4 73.4 74% 88 30.04 0.0
31 15:55 W 9 10.00 Fair CLR 82.4 73.4 74% 88 30.05 0.0
31 15:35 SW 7 G 14 10.00 Fair CLR 82.4 73.4 74% 88 30.06 0.0
31 15:15 SW 9 10.00 Fair CLR 82.4 73.4 74% 88 30.06 0.0
31 14:55 W 10 10.00 Fair CLR 82.4 71.6 70% 87 30.07 0.0
31 14:35 SW 9 10.00 Fair CLR 82.4 73.4 74% 88 30.07 0.0
31 14:15 SW 9 10.00 Fair CLR 82.4 73.4 74% 88 30.07 0.0
31 13:55 W 13 10.00 Fair CLR 84.2 73.4 70% 91 30.08 0.0
31 13:35 W 10 10.00 Fair CLR 84.2 75.2 74% 92 30.09 0.0
31 13:15 W 10 G 16 10.00 Fair CLR 84.2 73.4 70% 91 30.1 0.0
31 12:55 W 8 G 15 10.00 Fair CLR 84.2 73.4 70% 91 30.09 0.0
31 12:35 W 9 10.00 Fair CLR 84.2 75.2 74% 92 30.1 0.0
31 12:15 W 10 G 18 10.00 Fair CLR 84.2 73.4 70% 91 30.09 0.0
31 11:55 W 14 10.00 Fair CLR 86 73.4 66% 93 30.09 0.0
31 11:35 W 10 10.00 Fair CLR 84.2 73.4 70% 91 30.1 0.0
31 11:15 W 8 G 18 10.00 Fair CLR 82.4 73.4 74% 88 30.1 0.0
31 10:55 SW 7 10.00 Fair CLR 82.4 71.6 70% 87 30.09 0.0
31 10:35 SW 9 10.00 Fair CLR 80.6 71.6 74% 85 30.09 0.0
31 10:15 SW 10 10.00 Fair CLR 77 71.6 83% 78 30.08 0.0
31 09:55 SW 9 10.00 Fair CLR 77 71.6 83% 78 30.08 0.0
31 09:35 SW 8 10.00 Fair CLR 75.2 69.8 83% 75 30.08 0.0
31 09:15 SW 8 10.00 Fair CLR 75.2 69.8 83% 75 30.08 0.0
31 08:55 SW 10 10.00 Fair CLR 75.2 69.8 83% 75 30.08 0.0
31 08:35 Calm 10.00 Partly Cloudy FEW038 FEW048 SCT110 73.4 69.8 89% 0 0.0
31 08:15 SW 7 10.00 Mostly Cloudy SCT100 BKN120 73.4 68 83% 30.07 0.0
31 07:55 SW 7 10.00 Mostly Cloudy BKN095 BKN120 73.4 68 83% 30.07 0.0
31 07:35 SW 7 10.00 Mostly Cloudy BKN100 BKN120 73.4 68 83% 30.07 0.0
31 07:15 SW 8 10.00 Overcast FEW040 SCT055 OVC100 73.4 68 83% 30.07 0.0
31 06:55 SW 7 10.00 Mostly Cloudy FEW040 SCT055 BKN070 71.6 69.8 94% 30.07 0.0
31 06:35 SW 7 10.00 Overcast FEW041 SCT075 OVC100 71.6 69.8 94% 30.06 0.0
31 06:15 S 5 10.00 Mostly Cloudy FEW045 SCT060 BKN070 71.6 68 88% 30.05 0.0
31 05:55 S 9 10.00 Overcast FEW047 SCT075 OVC100 71.6 68 88% 30.04 0.0
31 05:35 SW 6 10.00 Overcast SCT048 BKN070 OVC100 71.6 68 88% 30.06 0.0
31 05:15 SW 5 10.00 Overcast FEW050 BKN065 OVC100 73.4 68 83% 30.06 0.0
31 04:55 S 5 10.00 Overcast FEW044 SCT065 OVC110 73.4 66.2 78% 30.06 0.0
31 04:35 S 5 10.00 Overcast FEW075 FEW090 OVC120 73.4 66.2 78% 30.06 0.0
31 04:15 S 3 10.00 Mostly Cloudy FEW075 SCT090 BKN110 71.6 66.2 83% 30.06 0.0
31 03:55 Calm 10.00 Partly Cloudy FEW042 FEW065 SCT080 73.4 66.2 78% 30.06 0.0
31 03:35 S 3 10.00 Partly Cloudy FEW042 FEW065 SCT095 73.4 66.2 78% 30.06 0.0
31 03:15 S 8 10.00 Fair CLR 73.4 66.2 78% 30.06 0.0
31 02:55 S 6 10.00 A Few Clouds FEW110 71.6 66.2 83% 30.07 0.0
31 02:35 S 5 10.00 Fair CLR 71.6 66.2 83% 30.07 0.0
31 02:15 S 8 10.00 A Few Clouds FEW085 FEW120 71.6 66.2 83% 30.08 0.0
31 01:55 S 5 10.00 Mostly Cloudy FEW060 SCT075 BKN090 73.4 66.2 78% 30.08 0.0
31 01:35 S 5 10.00 Overcast BKN065 BKN075 OVC100 71.6 68 88% 30.08 0.0
31 01:15 S 3 10.00 Overcast FEW070 OVC110 73.4 68 83% 30.08 0.0
31 00:55 S 7 10.00 Mostly Cloudy BKN110 73.4 68 83% 30.08 0.0
31 00:35 S 6 10.00 Fair CLR 71.6 69.8 94% 30.08 0.0
31 00:15 SE 6 10.00 Fair CLR 71.6 69.8 94% 30.08 0.0
30 23:55 SE 5 10.00 Fair CLR 71.6 69.8 94% 30.09 0.0
30 23:35 SE 3 10.00 Fair CLR 69.8 69.8 100% 30.09 0.0
30 23:15 Calm 10.00 Fair CLR 69.8 69.8 100% 30.09 0.0
30 22:55 SE 3 10.00 Fair CLR 71.6 71.6 100% 30.09 0.0
30 22:35 Calm 10.00 NULL NULL 71.6 71.6 100% 30.09 0.0
30 22:15 Calm 10.00 Fair CLR 71.6 69.8 94% 30.09 0.0
30 21:55 SE 5 10.00 Fair CLR 73.4 71.6 94% 30.08 0.0
30 21:35 SE 5 10.00 Fair CLR 71.6 69.8 94% 30.08 0.0
30 21:15 SE 5 10.00 Fair CLR 71.6 71.6 100% 30.08 0.0
30 20:55 Calm 10.00 Partly Cloudy SCT120 71.6 71.6 100% 30.09 0.0
30 20:35 Calm 10.00 Overcast OVC110 73.4 71.6 94% 30.08 0.0
30 20:15 Calm 10.00 Overcast OVC110 75.2 71.6 89% 75 30.09 0.0
30 19:55 Calm 10.00 Overcast OVC110 77 71.6 83% 78 30.09 0.0
30 19:35 Calm 10.00 Overcast FEW045 OVC110 77 69.8 79% 79 30.09 0.0
30 19:15 NW 5 10.00 Mostly Cloudy FEW045 BKN110 78.8 71.6 79% 82 30.09 0.0
30 18:55 SW 7 10.00 A Few Clouds FEW120 78.8 71.6 79% 82 30.07 0.0
30 18:35 SW 5 10.00 Fair CLR 80.6 73.4 79% 85 30.06 0.0
30 18:15 S 5 10.00 Fair CLR 78.8 71.6 79% 82 30.05 0.0
30 17:55 SE 5 10.00 Fair CLR 78.8 71.6 79% 82 30.05 0.0
30 17:35 S 5 10.00 Fair CLR 78.8 71.6 79% 82 30.06 0.0
30 17:15 S 7 10.00 Fair CLR 78.8 71.6 79% 82 30.05 0.0
30 16:55 SE 5 10.00 Fair CLR 77 69.8 79% 79 30.05 0.0
30 16:35 SE 3 10.00 A Few Clouds FEW120 77 69.8 79% 79 30.05 0.0
30 16:15 SE 5 10.00 Fair CLR 75.2 69.8 83% 75 30.06 0.0
30 15:55 Calm 10.00 NULL NULL 75.2 69.8 83% 75 30.06 0.0
30 15:35 Vrbl 5 10.00 NULL NULL 0 0 0% 30.06 0.0
Date Time (edt) Wind (mph) Vis. (mi.) Weather Sky Cond. Air Dwpt Max. Min. Relative Humidity Wind Chill (°F) Heat Index (°F) altimeter (in) sea level (mb) 1 hr 3 hr 6 hr
6 hour
Temperature (ºF) Pressure Precipitation (in)